createdAt,value
2017-12-06T00:01:53.315Z,14.10
2017-12-06T00:04:20.167Z,11.07
2017-12-06T00:06:46.954Z,15.45
2017-12-06T00:09:13.794Z,14.57
2017-12-06T00:11:40.627Z,17.02
2017-12-06T00:14:07.433Z,14.70
2017-12-06T00:16:34.255Z,18.43
2017-12-06T00:19:01.100Z,17.80
2017-12-06T00:21:27.880Z,14.98
2017-12-06T00:23:54.673Z,16.80
2017-12-06T00:26:21.527Z,17.87
2017-12-06T00:28:48.345Z,20.10
2017-12-06T00:31:15.165Z,19.12
2017-12-06T00:33:41.999Z,19.25
2017-12-06T00:36:08.812Z,22.52
2017-12-06T00:38:35.614Z,20.40
2017-12-06T00:41:02.396Z,22.62
2017-12-06T00:43:29.182Z,20.80
2017-12-06T00:45:56.007Z,17.83
2017-12-06T00:48:22.835Z,20.67
2017-12-06T00:50:49.626Z,18.73
2017-12-06T00:53:16.469Z,21.98
2017-12-06T00:55:43.246Z,20.10
2017-12-06T00:58:10.082Z,19.30
2017-12-06T01:00:42.774Z,20.75
2017-12-06T01:03:09.627Z,25.25
2017-12-06T01:05:36.434Z,26.60
2017-12-06T01:08:03.256Z,21.50
2017-12-06T01:10:30.099Z,26.77
2017-12-06T01:12:56.923Z,27.77
2017-12-06T01:15:23.721Z,27.50
2017-12-06T01:17:50.879Z,30.98
2017-12-06T01:20:17.703Z,31.02
2017-12-06T01:22:44.490Z,33.80
2017-12-06T01:25:11.307Z,31.55
2017-12-06T01:27:38.131Z,33.13
2017-12-06T01:30:04.957Z,32.10
2017-12-06T01:32:31.815Z,31.95
2017-12-06T01:34:58.647Z,34.55
2017-12-06T01:37:25.442Z,27.92
2017-12-06T01:39:52.257Z,29.50
2017-12-06T01:42:19.087Z,27.50
2017-12-06T01:44:45.984Z,28.17
2017-12-06T01:47:12.814Z,31.65
2017-12-06T01:49:39.639Z,28.42
2017-12-06T01:52:06.454Z,27.17
2017-12-06T01:54:33.295Z,28.67
2017-12-06T01:57:00.094Z,24.87
2017-12-06T01:59:27.211Z,24.53
2017-12-06T02:01:54.043Z,22.90
2017-12-06T02:04:20.950Z,28.42
2017-12-06T02:06:47.766Z,23.73
2017-12-06T02:09:14.589Z,24.23
2017-12-06T02:11:41.443Z,25.35
2017-12-06T02:14:08.222Z,27.08
2017-12-06T02:16:35.030Z,26.87
2017-12-06T02:19:01.842Z,29.35
2017-12-06T02:21:28.686Z,26.25
2017-12-06T02:23:55.543Z,27.00
2017-12-06T02:26:22.390Z,29.33
2017-12-06T02:28:49.541Z,27.20
2017-12-06T02:31:16.419Z,27.92
2017-12-06T02:33:43.255Z,29.35
2017-12-06T02:36:10.119Z,36.47
2017-12-06T02:38:36.907Z,26.55
2017-12-06T02:41:09.665Z,31.92
2017-12-06T02:43:42.502Z,36.43
2017-12-06T02:46:09.433Z,30.12
2017-12-06T02:48:36.223Z,25.58
2017-12-06T02:51:03.052Z,28.55
2017-12-06T02:53:29.881Z,27.98
2017-12-06T02:55:56.724Z,24.48
2017-12-06T02:58:23.842Z,26.58
2017-12-06T03:00:50.661Z,30.42
2017-12-06T03:03:17.466Z,26.25
2017-12-06T03:05:44.571Z,26.27
2017-12-06T03:08:11.374Z,29.12
2017-12-06T03:10:38.176Z,25.33
2017-12-06T03:13:04.990Z,26.48
2017-12-06T03:15:31.827Z,24.10
2017-12-06T03:17:58.637Z,25.80
2017-12-06T03:20:25.491Z,26.48
2017-12-06T03:22:52.291Z,29.65
2017-12-06T03:25:19.110Z,28.55
2017-12-06T03:27:45.948Z,26.15
2017-12-06T03:30:12.780Z,28.00
2017-12-06T03:32:39.593Z,35.58
2017-12-06T03:35:06.394Z,30.42
2017-12-06T03:37:33.197Z,28.12
2017-12-06T03:40:00.007Z,31.87
2017-12-06T03:42:26.833Z,27.87
2017-12-06T03:44:53.996Z,27.52
2017-12-06T03:47:20.823Z,28.30
2017-12-06T03:49:47.634Z,28.30
2017-12-06T03:52:14.430Z,25.95
2017-12-06T03:54:41.262Z,27.30
2017-12-06T03:57:08.078Z,26.10
2017-12-06T03:59:34.907Z,28.08
2017-12-06T04:02:01.746Z,27.70
2017-12-06T04:04:28.743Z,23.80
2017-12-06T04:06:55.575Z,28.50
2017-12-06T04:09:22.430Z,25.85
2017-12-06T04:11:49.213Z,27.00
2017-12-06T04:14:16.059Z,28.60
2017-12-06T04:16:43.127Z,27.33
2017-12-06T04:19:09.947Z,28.00
2017-12-06T04:21:36.779Z,33.60
2017-12-06T04:24:03.598Z,27.75
2017-12-06T04:26:30.413Z,29.52
2017-12-06T04:28:57.257Z,30.48
2017-12-06T04:31:24.076Z,29.58
2017-12-06T04:33:50.929Z,34.63
2017-12-06T04:36:17.750Z,29.27
2017-12-06T04:38:44.588Z,27.83
2017-12-06T04:41:11.760Z,29.77
2017-12-06T04:43:38.586Z,28.52
2017-12-06T04:46:05.427Z,32.10
2017-12-06T04:48:32.226Z,29.10
2017-12-06T04:50:59.442Z,29.70
2017-12-06T04:53:26.239Z,28.02
2017-12-06T04:55:53.034Z,29.12
2017-12-06T04:58:19.879Z,27.77
2017-12-06T05:00:47.018Z,26.60
2017-12-06T05:03:13.809Z,29.83
2017-12-06T05:05:40.638Z,27.00
2017-12-06T05:08:07.461Z,29.87
2017-12-06T05:10:34.246Z,30.37
2017-12-06T05:13:01.066Z,27.33
2017-12-06T05:15:27.891Z,30.75
2017-12-06T05:17:54.686Z,29.90
2017-12-06T05:20:21.513Z,27.83
2017-12-06T05:22:48.343Z,26.23
2017-12-06T05:25:15.146Z,27.33
2017-12-06T05:27:42.301Z,27.52
2017-12-06T05:30:09.119Z,37.13
2017-12-06T05:32:35.935Z,30.27
2017-12-06T05:35:02.745Z,28.58
2017-12-06T05:37:29.563Z,27.30
2017-12-06T05:39:56.405Z,29.70
2017-12-06T05:42:23.461Z,32.00
2017-12-06T05:44:50.279Z,28.67
2017-12-06T05:47:17.115Z,28.30
2017-12-06T05:49:43.913Z,26.10
2017-12-06T05:52:10.718Z,29.25
2017-12-06T05:54:37.770Z,30.77
2017-12-06T05:57:04.587Z,29.60
2017-12-06T05:59:31.403Z,27.77
2017-12-06T06:01:58.245Z,31.80
2017-12-06T06:04:25.024Z,27.73
2017-12-06T06:06:51.843Z,29.37
2017-12-06T06:09:18.667Z,26.77
2017-12-06T06:11:45.503Z,29.48
2017-12-06T06:14:12.289Z,28.98
2017-12-06T06:16:39.107Z,25.80
2017-12-06T06:19:05.931Z,26.55
2017-12-06T06:21:33.054Z,26.80
2017-12-06T06:23:59.858Z,30.98
2017-12-06T06:26:26.645Z,26.83
2017-12-06T06:28:53.500Z,30.37
2017-12-06T06:31:20.327Z,32.25
2017-12-06T06:33:47.155Z,29.33
2017-12-06T06:36:13.978Z,26.37
2017-12-06T06:38:40.766Z,30.95
2017-12-06T06:41:07.951Z,28.25
2017-12-06T06:43:35.513Z,28.17
2017-12-06T06:46:02.335Z,32.23
2017-12-06T06:48:29.149Z,30.40
2017-12-06T06:50:55.978Z,28.95
2017-12-06T06:53:22.795Z,30.12
2017-12-06T06:55:49.702Z,32.20
2017-12-06T06:58:16.454Z,30.67
2017-12-06T07:00:43.283Z,29.48
2017-12-06T07:03:10.091Z,28.70
2017-12-06T07:05:36.878Z,27.20
2017-12-06T07:08:03.706Z,29.40
2017-12-06T07:10:30.528Z,27.58
2017-12-06T07:12:57.318Z,26.55
2017-12-06T07:15:24.169Z,30.27
2017-12-06T07:17:51.261Z,30.27
2017-12-06T07:20:18.055Z,30.67
2017-12-06T07:22:44.891Z,31.27
2017-12-06T07:25:11.996Z,28.17
2017-12-06T07:27:38.859Z,31.00
2017-12-06T07:30:05.688Z,27.00
2017-12-06T07:32:32.520Z,28.48
2017-12-06T07:34:59.330Z,27.60
2017-12-06T07:37:26.133Z,30.27
2017-12-06T07:39:52.946Z,30.05
2017-12-06T07:42:19.771Z,30.95
2017-12-06T07:44:46.586Z,33.83
2017-12-06T07:47:13.381Z,32.00
2017-12-06T07:49:40.174Z,30.50
2017-12-06T07:52:07.015Z,32.40
2017-12-06T07:54:33.810Z,26.77
2017-12-06T07:57:00.610Z,31.40
2017-12-06T07:59:27.450Z,25.42
2017-12-06T08:01:54.234Z,26.77
2017-12-06T08:04:21.048Z,30.40
2017-12-06T08:06:47.868Z,28.77
2017-12-06T08:09:14.653Z,23.75
2017-12-06T08:11:41.478Z,24.95
2017-12-06T08:14:08.269Z,26.08
2017-12-06T08:16:35.114Z,27.13
2017-12-06T08:19:02.238Z,24.83
2017-12-06T08:21:29.095Z,29.73
2017-12-06T08:23:56.231Z,27.67
2017-12-06T08:26:23.013Z,25.50
2017-12-06T08:28:49.838Z,28.10
2017-12-06T08:31:16.653Z,26.52
2017-12-06T08:33:43.472Z,28.33
2017-12-06T08:36:10.494Z,28.90
2017-12-06T08:38:37.328Z,23.52
2017-12-06T08:41:04.164Z,22.92
2017-12-06T08:43:31.021Z,24.37
2017-12-06T08:45:57.824Z,27.67
2017-12-06T08:48:24.662Z,23.33
2017-12-06T08:50:51.503Z,25.20
2017-12-06T08:53:18.550Z,22.42
2017-12-06T08:55:45.354Z,26.52
2017-12-06T08:58:12.175Z,25.50
2017-12-06T09:00:39.013Z,25.10
2017-12-06T09:03:06.132Z,21.50
2017-12-06T09:05:32.946Z,21.87
2017-12-06T09:07:59.731Z,20.40
2017-12-06T09:10:26.576Z,23.30
2017-12-06T09:12:53.382Z,24.50
2017-12-06T09:15:20.233Z,24.45
2017-12-06T09:17:47.071Z,22.42
2017-12-06T09:20:13.927Z,22.85
2017-12-06T09:22:40.746Z,22.58
2017-12-06T09:25:07.534Z,29.52
2017-12-06T09:27:34.362Z,21.97
2017-12-06T09:30:01.199Z,22.33
2017-12-06T09:32:27.982Z,23.35
2017-12-06T09:34:54.797Z,28.40
2017-12-06T09:37:21.635Z,24.15
2017-12-06T09:39:48.674Z,24.33
2017-12-06T09:42:15.529Z,22.08
2017-12-06T09:44:42.338Z,18.23
2017-12-06T09:47:09.129Z,22.90
2017-12-06T09:49:36.256Z,25.02
2017-12-06T09:52:03.068Z,25.23
2017-12-06T09:54:30.141Z,25.90
2017-12-06T09:56:56.960Z,18.95
2017-12-06T09:59:23.738Z,22.98
2017-12-06T10:01:50.550Z,17.73
2017-12-06T10:04:17.346Z,21.33
2017-12-06T10:06:44.159Z,20.12
2017-12-06T10:09:10.982Z,23.60
2017-12-06T10:11:37.785Z,22.23
2017-12-06T10:14:04.631Z,18.10
2017-12-06T10:16:31.414Z,20.40
2017-12-06T10:18:58.235Z,19.23
2017-12-06T10:21:25.055Z,19.77
2017-12-06T10:23:51.834Z,17.20
2017-12-06T10:26:18.678Z,18.55
2017-12-06T10:28:45.479Z,20.90
2017-12-06T10:31:12.300Z,24.80
2017-12-06T10:33:39.115Z,23.80
2017-12-06T10:36:05.948Z,18.60
2017-12-06T10:38:32.775Z,22.45
2017-12-06T10:40:59.612Z,19.30
2017-12-06T10:43:26.438Z,19.20
2017-12-06T10:45:53.255Z,20.42
2017-12-06T10:48:20.064Z,19.90
2017-12-06T10:50:46.907Z,22.48
2017-12-06T10:53:13.727Z,17.92
2017-12-06T10:55:40.558Z,20.37
2017-12-06T10:58:07.368Z,17.50
2017-12-06T11:00:34.199Z,22.10
2017-12-06T11:03:01.029Z,21.62
2017-12-06T11:05:27.835Z,19.10
2017-12-06T11:07:54.642Z,18.33
2017-12-06T11:10:21.473Z,23.40
2017-12-06T11:12:48.274Z,17.48
2017-12-06T11:15:15.107Z,19.12
2017-12-06T11:17:41.926Z,19.97
2017-12-06T11:20:08.712Z,18.75
2017-12-06T11:22:35.530Z,21.30
2017-12-06T11:25:02.367Z,17.23
2017-12-06T11:27:29.247Z,15.88
2017-12-06T11:29:56.042Z,22.10
2017-12-06T11:32:22.862Z,21.98
2017-12-06T11:34:49.691Z,17.42
2017-12-06T11:37:16.469Z,18.40
2017-12-06T11:39:43.258Z,18.25
2017-12-06T11:42:10.089Z,19.67
2017-12-06T11:44:36.913Z,17.23
2017-12-06T11:47:03.755Z,18.75
2017-12-06T11:49:30.526Z,17.20
2017-12-06T11:51:57.383Z,17.75
2017-12-06T11:54:24.198Z,16.50
2017-12-06T11:56:50.990Z,16.80
2017-12-06T11:59:17.774Z,15.25
2017-12-06T12:01:44.863Z,16.60
2017-12-06T12:04:11.675Z,16.90
2017-12-06T12:06:38.507Z,22.87
2017-12-06T12:09:05.594Z,14.20
2017-12-06T12:11:32.389Z,16.20
2017-12-06T12:13:59.257Z,16.37
2017-12-06T12:16:26.026Z,15.13
2017-12-06T12:18:52.869Z,14.55
2017-12-06T12:21:19.703Z,17.62
2017-12-06T12:23:46.511Z,18.97
2017-12-06T12:26:13.358Z,14.93
2017-12-06T12:28:40.447Z,14.00
2017-12-06T12:31:07.253Z,15.43
2017-12-06T12:33:34.086Z,14.57
2017-12-06T12:36:00.939Z,14.87
2017-12-06T12:38:27.776Z,15.60
2017-12-06T12:40:54.643Z,13.23
2017-12-06T12:43:21.458Z,13.15
2017-12-06T12:45:48.371Z,11.65
2017-12-06T12:48:15.166Z,16.77
2017-12-06T12:50:42.039Z,15.23
2017-12-06T12:53:08.833Z,17.80
2017-12-06T12:55:35.626Z,14.98
2017-12-06T12:58:02.704Z,20.85
2017-12-06T13:00:29.555Z,16.45
2017-12-06T13:02:56.448Z,15.98
2017-12-06T13:05:23.253Z,13.77
2017-12-06T13:07:50.337Z,15.15
2017-12-06T13:10:17.492Z,16.12
2017-12-06T13:12:44.426Z,16.27
2017-12-06T13:15:11.223Z,16.85
2017-12-06T13:17:38.079Z,16.70
2017-12-06T13:20:04.894Z,15.88
2017-12-06T13:22:31.889Z,14.43
2017-12-06T13:24:58.682Z,14.77
2017-12-06T13:27:25.488Z,14.15
2017-12-06T13:29:52.365Z,15.20
2017-12-06T13:32:19.489Z,20.70
2017-12-06T13:34:46.282Z,15.10
2017-12-06T13:37:13.162Z,19.60
2017-12-06T13:39:40.669Z,14.57
2017-12-06T13:42:07.490Z,15.00
2017-12-06T13:44:34.335Z,15.50
2017-12-06T13:47:01.205Z,17.08
2017-12-06T13:49:28.040Z,14.27
2017-12-06T13:51:55.159Z,15.80
2017-12-06T13:54:21.986Z,17.42
2017-12-06T13:56:48.806Z,13.17
2017-12-06T13:59:15.664Z,16.80
2017-12-06T14:01:42.470Z,16.25
2017-12-06T14:04:09.296Z,14.45
2017-12-06T14:06:36.132Z,15.63
2017-12-06T14:09:02.930Z,15.68
2017-12-06T14:11:30.111Z,18.20
2017-12-06T14:13:56.951Z,14.82
2017-12-06T14:16:23.776Z,14.15
2017-12-06T14:18:50.641Z,16.55
2017-12-06T14:21:17.476Z,15.27
2017-12-06T14:23:44.294Z,19.33
2017-12-06T14:26:11.094Z,15.50
2017-12-06T14:28:37.969Z,11.98
2017-12-06T14:31:04.782Z,15.00
2017-12-06T14:33:31.656Z,12.50
2017-12-06T14:35:58.441Z,14.75
2017-12-06T14:38:25.282Z,15.27
2017-12-06T14:40:52.123Z,14.25
2017-12-06T14:43:18.978Z,15.50
2017-12-06T14:45:45.766Z,13.70
2017-12-06T14:48:12.594Z,17.52
2017-12-06T14:50:39.485Z,13.05
2017-12-06T14:53:06.349Z,22.62
2017-12-06T14:55:33.198Z,18.42
2017-12-06T14:58:00.075Z,21.67
2017-12-06T15:00:27.175Z,14.07
2017-12-06T15:02:54.051Z,14.20
2017-12-06T15:05:20.892Z,13.88
2017-12-06T15:07:47.754Z,17.70
2017-12-06T15:10:14.587Z,17.58
2017-12-06T15:12:41.426Z,15.13
2017-12-06T15:15:08.437Z,14.23
2017-12-06T15:17:35.481Z,12.07
2017-12-06T15:20:02.344Z,13.32
2017-12-06T15:22:29.137Z,18.48
2017-12-06T15:24:55.972Z,13.83
2017-12-06T15:27:22.776Z,16.25
2017-12-06T15:29:49.595Z,12.60
2017-12-06T15:32:16.455Z,12.85
2017-12-06T15:34:43.300Z,13.45
2017-12-06T15:37:10.112Z,11.32
2017-12-06T15:39:36.921Z,12.37
2017-12-06T15:42:03.755Z,11.00
2017-12-06T15:44:30.607Z,10.30
2017-12-06T15:46:57.449Z,13.90
2017-12-06T15:49:24.294Z,11.48
2017-12-06T15:51:51.153Z,11.68
2017-12-06T15:54:17.971Z,9.40
2017-12-06T15:56:44.803Z,12.20
2017-12-06T15:59:11.615Z,12.65
2017-12-06T16:01:38.394Z,12.80
2017-12-06T16:04:05.529Z,11.90
2017-12-06T16:06:32.350Z,11.70
2017-12-06T16:08:59.506Z,11.73
2017-12-06T16:11:26.310Z,11.75
2017-12-06T16:13:53.134Z,12.45
2017-12-06T16:16:19.999Z,11.57
2017-12-06T16:18:46.838Z,11.07
2017-12-06T16:21:13.923Z,10.90
2017-12-06T16:23:41.070Z,11.83
2017-12-06T16:26:07.877Z,11.05
2017-12-06T16:28:34.739Z,13.10
2017-12-06T16:31:01.567Z,10.30
2017-12-06T16:33:28.387Z,9.80
2017-12-06T16:36:01.114Z,11.90
2017-12-06T16:38:27.972Z,9.20
2017-12-06T16:40:54.815Z,12.15
2017-12-06T16:43:21.661Z,10.40
2017-12-06T16:45:48.502Z,9.02
2017-12-06T16:48:15.326Z,11.40
2017-12-06T16:50:42.130Z,10.80
2017-12-06T16:53:08.918Z,8.40
2017-12-06T16:55:36.076Z,9.63
2017-12-06T16:58:02.869Z,9.02
2017-12-06T17:00:29.731Z,11.20
2017-12-06T17:02:56.565Z,9.60
2017-12-06T17:05:23.383Z,11.68
2017-12-06T17:07:50.235Z,12.43
2017-12-06T17:10:17.342Z,11.75
2017-12-06T17:12:44.220Z,9.15
2017-12-06T17:15:11.042Z,13.73
2017-12-06T17:17:38.107Z,9.73
2017-12-06T17:20:04.979Z,9.40
2017-12-06T17:22:31.774Z,10.60
2017-12-06T17:24:58.600Z,8.80
2017-12-06T17:27:25.425Z,10.35
2017-12-06T17:29:58.287Z,9.80
2017-12-06T17:32:25.114Z,10.98
2017-12-06T17:34:52.220Z,9.43
2017-12-06T17:37:19.024Z,11.45
2017-12-06T17:39:45.862Z,10.15
2017-12-06T17:42:12.705Z,9.80
2017-12-06T17:44:39.534Z,11.38
2017-12-06T17:47:06.366Z,10.07
2017-12-06T17:49:33.183Z,11.00
2017-12-06T17:52:00.047Z,10.20
2017-12-06T17:54:26.879Z,9.88
2017-12-06T17:56:53.723Z,10.90
2017-12-06T17:59:20.581Z,11.25
2017-12-06T18:01:47.419Z,9.98
2017-12-06T18:04:14.267Z,9.88
2017-12-06T18:06:41.075Z,11.48
2017-12-06T18:09:07.903Z,12.40
2017-12-06T18:11:34.734Z,11.03
2017-12-06T18:14:01.571Z,11.00
2017-12-06T18:16:28.377Z,11.88
2017-12-06T18:18:55.194Z,14.68
2017-12-06T18:21:22.059Z,14.38
2017-12-06T18:23:48.868Z,12.27
2017-12-06T18:26:15.678Z,9.80
2017-12-06T18:28:42.528Z,11.50
2017-12-06T18:31:09.334Z,12.02
2017-12-06T18:33:36.167Z,13.82
2017-12-06T18:36:03.015Z,10.30
2017-12-06T18:38:29.861Z,11.80
2017-12-06T18:40:56.759Z,11.55
2017-12-06T18:43:23.592Z,9.55
2017-12-06T18:45:50.370Z,12.55
2017-12-06T18:48:17.216Z,12.70
2017-12-06T18:50:44.031Z,14.73
2017-12-06T18:53:11.105Z,12.88
2017-12-06T18:55:37.894Z,11.38
2017-12-06T18:58:04.748Z,11.70
2017-12-06T19:00:31.578Z,12.13
2017-12-06T19:02:58.420Z,13.10
2017-12-06T19:05:25.197Z,11.30
2017-12-06T19:07:52.041Z,10.55
2017-12-06T19:10:18.818Z,11.83
2017-12-06T19:12:45.614Z,10.43
2017-12-06T19:15:12.447Z,18.48
2017-12-06T19:17:39.250Z,10.98
2017-12-06T19:20:06.082Z,12.10
2017-12-06T19:22:32.911Z,15.23
2017-12-06T19:24:59.958Z,12.73
2017-12-06T19:27:26.780Z,13.38
2017-12-06T19:29:53.566Z,11.98
2017-12-06T19:32:20.415Z,14.03
2017-12-06T19:34:47.227Z,10.63
2017-12-06T19:37:14.886Z,10.20
2017-12-06T19:39:41.772Z,13.80
2017-12-06T19:42:08.583Z,17.23
2017-12-06T19:44:35.399Z,12.02
2017-12-06T19:47:02.228Z,13.00
2017-12-06T19:49:29.048Z,11.90
2017-12-06T19:51:55.854Z,13.50
2017-12-06T19:54:22.903Z,12.77
2017-12-06T19:56:49.682Z,15.90
2017-12-06T19:59:16.535Z,15.30
2017-12-06T20:01:43.371Z,20.70
2017-12-06T20:04:10.195Z,15.13
2017-12-06T20:06:37.002Z,15.43
2017-12-06T20:09:03.786Z,19.85
2017-12-06T20:11:30.631Z,17.13
2017-12-06T20:13:57.413Z,15.65
2017-12-06T20:16:24.243Z,14.75
2017-12-06T20:18:51.050Z,14.95
2017-12-06T20:21:17.845Z,15.13
2017-12-06T20:23:44.635Z,15.00
2017-12-06T20:26:11.470Z,14.60
2017-12-06T20:28:38.288Z,14.57
2017-12-06T20:31:05.438Z,15.10
2017-12-06T20:33:32.263Z,15.50
2017-12-06T20:35:59.019Z,15.50
2017-12-06T20:38:26.072Z,16.75
2017-12-06T20:40:52.928Z,16.62
2017-12-06T20:43:19.717Z,14.55
2017-12-06T20:45:46.521Z,14.70
2017-12-06T20:48:13.650Z,15.45
2017-12-06T20:50:40.470Z,15.35
2017-12-06T20:53:08.037Z,14.68
2017-12-06T20:55:36.254Z,16.50
2017-12-06T20:58:03.048Z,14.35
2017-12-06T21:00:29.892Z,18.77
2017-12-06T21:02:56.730Z,13.62
2017-12-06T21:05:23.804Z,13.30
2017-12-06T21:07:50.647Z,13.00
2017-12-06T21:10:17.802Z,14.37
2017-12-06T21:12:44.611Z,16.05
2017-12-06T21:15:11.421Z,14.00
2017-12-06T21:17:38.244Z,15.13
2017-12-06T21:20:05.375Z,12.63
2017-12-06T21:22:32.239Z,13.40
2017-12-06T21:24:59.063Z,14.65
2017-12-06T21:27:25.870Z,12.27
2017-12-06T21:29:52.956Z,13.60
2017-12-06T21:32:19.788Z,12.10
2017-12-06T21:34:46.599Z,12.37
2017-12-06T21:37:13.402Z,15.27
2017-12-06T21:39:40.195Z,13.90
2017-12-06T21:42:06.990Z,13.25
2017-12-06T21:44:33.812Z,13.10
2017-12-06T21:47:00.614Z,12.27
2017-12-06T21:49:27.451Z,15.02
2017-12-06T21:51:54.230Z,13.15
2017-12-06T21:54:21.083Z,11.70
2017-12-06T21:56:47.890Z,13.50
2017-12-06T21:59:14.737Z,13.57
2017-12-06T22:01:41.576Z,13.60
2017-12-06T22:04:08.396Z,10.98
2017-12-06T22:06:35.177Z,12.10
2017-12-06T22:09:02.053Z,10.93
2017-12-06T22:11:28.897Z,11.43
2017-12-06T22:13:55.707Z,11.23
2017-12-06T22:16:22.555Z,13.40
2017-12-06T22:18:49.346Z,16.12
2017-12-06T22:21:16.170Z,13.30
2017-12-06T22:23:43.007Z,12.10
2017-12-06T22:26:09.823Z,13.35
2017-12-06T22:28:36.626Z,13.45
2017-12-06T22:31:03.418Z,11.73
2017-12-06T22:33:30.267Z,11.80
2017-12-06T22:35:57.097Z,12.95
2017-12-06T22:38:23.887Z,14.38
2017-12-06T22:40:50.731Z,12.65
2017-12-06T22:43:17.554Z,13.13
2017-12-06T22:45:44.337Z,13.20
2017-12-06T22:48:11.221Z,12.37
2017-12-06T22:50:38.010Z,14.00
2017-12-06T22:53:04.817Z,16.73
2017-12-06T22:55:31.642Z,13.70
2017-12-06T22:57:58.434Z,14.52
2017-12-06T23:00:25.252Z,17.60
2017-12-06T23:02:52.109Z,16.93
2017-12-06T23:05:18.894Z,17.58
2017-12-06T23:07:45.747Z,15.73
2017-12-06T23:10:12.538Z,18.27
2017-12-06T23:12:39.330Z,18.75
2017-12-06T23:15:06.133Z,18.83
2017-12-06T23:17:32.945Z,19.80
2017-12-06T23:19:59.796Z,21.67
2017-12-06T23:22:26.582Z,24.27
2017-12-06T23:24:53.657Z,25.55
2017-12-06T23:27:20.483Z,24.67
2017-12-06T23:29:47.311Z,26.77
2017-12-06T23:32:14.128Z,29.50
2017-12-06T23:34:41.239Z,26.80
2017-12-06T23:37:08.392Z,25.60
2017-12-06T23:39:35.235Z,27.67
2017-12-06T23:42:02.071Z,27.73
2017-12-06T23:44:28.878Z,26.92
2017-12-06T23:46:55.673Z,27.45
2017-12-06T23:49:22.507Z,26.83
2017-12-06T23:51:49.354Z,26.70
2017-12-06T23:54:16.171Z,26.80
2017-12-06T23:56:42.968Z,26.55
2017-12-06T23:59:09.822Z,25.00
